sensor_id;sensor_type;location;lat;lon;timestamp;P1;durP1;ratioP1;P2;durP2;ratioP2
58643;SDS011;44411;49.994;8.660;2023-04-25T00:00:07;17.08;;;5.05;;
58643;SDS011;44411;49.994;8.660;2023-04-25T00:02:33;14.75;;;5.22;;
58643;SDS011;44411;49.994;8.660;2023-04-25T00:05:00;12.63;;;5.18;;
58643;SDS011;44411;49.994;8.660;2023-04-25T00:07:26;12.88;;;5.30;;
58643;SDS011;44411;49.994;8.660;2023-04-25T00:09:52;17.67;;;5.60;;
58643;SDS011;44411;49.994;8.660;2023-04-25T00:12:17;14.07;;;6.13;;
58643;SDS011;44411;49.994;8.660;2023-04-25T00:14:42;15.13;;;5.47;;
58643;SDS011;44411;49.994;8.660;2023-04-25T00:17:08;13.73;;;5.33;;
58643;SDS011;44411;49.994;8.660;2023-04-25T00:19:33;11.55;;;5.20;;
58643;SDS011;44411;49.994;8.660;2023-04-25T00:21:59;12.02;;;5.22;;
58643;SDS011;44411;49.994;8.660;2023-04-25T00:24:25;15.93;;;5.47;;
58643;SDS011;44411;49.994;8.660;2023-04-25T00:26:50;14.10;;;5.50;;
58643;SDS011;44411;49.994;8.660;2023-04-25T00:29:15;16.97;;;5.90;;
58643;SDS011;44411;49.994;8.660;2023-04-25T00:31:40;11.67;;;5.03;;
58643;SDS011;44411;49.994;8.660;2023-04-25T00:34:06;14.77;;;5.10;;
58643;SDS011;44411;49.994;8.660;2023-04-25T00:36:31;14.57;;;5.78;;
58643;SDS011;44411;49.994;8.660;2023-04-25T00:38:56;23.67;;;6.32;;
58643;SDS011;44411;49.994;8.660;2023-04-25T00:41:22;15.60;;;6.47;;
58643;SDS011;44411;49.994;8.660;2023-04-25T00:43:48;18.40;;;6.20;;
58643;SDS011;44411;49.994;8.660;2023-04-25T00:46:13;19.40;;;6.55;;
58643;SDS011;44411;49.994;8.660;2023-04-25T00:48:38;17.33;;;6.73;;
58643;SDS011;44411;49.994;8.660;2023-04-25T00:51:03;15.95;;;7.20;;
58643;SDS011;44411;49.994;8.660;2023-04-25T00:53:29;20.67;;;7.05;;
58643;SDS011;44411;49.994;8.660;2023-04-25T00:55:55;19.65;;;7.47;;
58643;SDS011;44411;49.994;8.660;2023-04-25T00:58:20;20.00;;;7.03;;
58643;SDS011;44411;49.994;8.660;2023-04-25T01:00:46;22.35;;;7.57;;
58643;SDS011;44411;49.994;8.660;2023-04-25T01:03:13;25.45;;;8.68;;
58643;SDS011;44411;49.994;8.660;2023-04-25T01:05:39;20.48;;;7.15;;
58643;SDS011;44411;49.994;8.660;2023-04-25T01:08:05;22.77;;;6.97;;
58643;SDS011;44411;49.994;8.660;2023-04-25T01:10:30;18.77;;;7.20;;
58643;SDS011;44411;49.994;8.660;2023-04-25T01:12:55;19.30;;;6.70;;
58643;SDS011;44411;49.994;8.660;2023-04-25T01:15:21;19.63;;;7.33;;
58643;SDS011;44411;49.994;8.660;2023-04-25T01:17:46;23.35;;;9.13;;
58643;SDS011;44411;49.994;8.660;2023-04-25T01:20:12;21.52;;;8.00;;
58643;SDS011;44411;49.994;8.660;2023-04-25T01:22:38;25.90;;;8.65;;
58643;SDS011;44411;49.994;8.660;2023-04-25T01:25:03;15.73;;;8.25;;
58643;SDS011;44411;49.994;8.660;2023-04-25T01:27:29;28.17;;;8.98;;
58643;SDS011;44411;49.994;8.660;2023-04-25T01:29:54;24.17;;;8.13;;
58643;SDS011;44411;49.994;8.660;2023-04-25T01:32:19;23.40;;;8.52;;
58643;SDS011;44411;49.994;8.660;2023-04-25T01:34:45;28.45;;;9.13;;
58643;SDS011;44411;49.994;8.660;2023-04-25T01:37:10;25.83;;;8.20;;
58643;SDS011;44411;49.994;8.660;2023-04-25T01:39:36;23.60;;;8.73;;
58643;SDS011;44411;49.994;8.660;2023-04-25T01:42:01;26.38;;;8.90;;
58643;SDS011;44411;49.994;8.660;2023-04-25T01:44:26;22.65;;;7.45;;
58643;SDS011;44411;49.994;8.660;2023-04-25T01:46:51;22.63;;;8.93;;
58643;SDS011;44411;49.994;8.660;2023-04-25T01:49:17;31.27;;;8.10;;
58643;SDS011;44411;49.994;8.660;2023-04-25T01:51:42;26.02;;;9.30;;
58643;SDS011;44411;49.994;8.660;2023-04-25T01:54:07;23.00;;;9.00;;
58643;SDS011;44411;49.994;8.660;2023-04-25T01:56:36;21.65;;;8.75;;
58643;SDS011;44411;49.994;8.660;2023-04-25T01:59:01;31.40;;;9.13;;
58643;SDS011;44411;49.994;8.660;2023-04-25T06:01:46;28.23;;;9.07;;
58643;SDS011;44411;49.994;8.660;2023-04-25T06:04:12;28.25;;;9.93;;
58643;SDS011;44411;49.994;8.660;2023-04-25T06:06:37;28.23;;;8.80;;
58643;SDS011;44411;49.994;8.660;2023-04-25T06:09:02;19.30;;;8.38;;
58643;SDS011;44411;49.994;8.660;2023-04-25T06:11:27;21.65;;;8.52;;
58643;SDS011;44411;49.994;8.660;2023-04-25T06:13:53;24.75;;;7.95;;
58643;SDS011;44411;49.994;8.660;2023-04-25T06:16:19;29.10;;;8.90;;
58643;SDS011;44411;49.994;8.660;2023-04-25T06:18:44;26.48;;;8.07;;
58643;SDS011;44411;49.994;8.660;2023-04-25T06:21:09;23.48;;;8.32;;
58643;SDS011;44411;49.994;8.660;2023-04-25T06:23:34;20.40;;;7.40;;
58643;SDS011;44411;49.994;8.660;2023-04-25T06:26:00;19.60;;;7.70;;
58643;SDS011;44411;49.994;8.660;2023-04-25T06:28:25;15.10;;;6.40;;
58643;SDS011;44411;49.994;8.660;2023-04-25T06:30:50;26.70;;;8.73;;
58643;SDS011;44411;49.994;8.660;2023-04-25T06:33:15;18.95;;;7.53;;
58643;SDS011;44411;49.994;8.660;2023-04-25T06:35:41;17.13;;;6.70;;
58643;SDS011;44411;49.994;8.660;2023-04-25T06:38:06;25.88;;;6.72;;
58643;SDS011;44411;49.994;8.660;2023-04-25T06:40:31;26.50;;;8.00;;
58643;SDS011;44411;49.994;8.660;2023-04-25T06:42:56;24.60;;;7.03;;
58643;SDS011;44411;49.994;8.660;2023-04-25T06:45:21;19.60;;;5.90;;
58643;SDS011;44411;49.994;8.660;2023-04-25T06:47:47;21.02;;;6.70;;
58643;SDS011;44411;49.994;8.660;2023-04-25T06:50:12;27.60;;;8.03;;
58643;SDS011;44411;49.994;8.660;2023-04-25T06:52:37;29.05;;;7.13;;
58643;SDS011;44411;49.994;8.660;2023-04-25T06:55:02;23.80;;;8.32;;
58643;SDS011;44411;49.994;8.660;2023-04-25T06:57:29;21.08;;;7.47;;
58643;SDS011;44411;49.994;8.660;2023-04-25T06:59:55;21.85;;;7.05;;
58643;SDS011;44411;49.994;8.660;2023-04-25T07:02:20;27.08;;;8.55;;
58643;SDS011;44411;49.994;8.660;2023-04-25T07:04:46;25.25;;;7.40;;
58643;SDS011;44411;49.994;8.660;2023-04-25T07:07:12;19.00;;;8.07;;
58643;SDS011;44411;49.994;8.660;2023-04-25T07:09:37;27.88;;;7.55;;
58643;SDS011;44411;49.994;8.660;2023-04-25T07:12:03;20.67;;;6.57;;
58643;SDS011;44411;49.994;8.660;2023-04-25T07:14:28;20.98;;;7.00;;
58643;SDS011;44411;49.994;8.660;2023-04-25T07:16:53;18.17;;;5.80;;
58643;SDS011;44411;49.994;8.660;2023-04-25T07:19:21;20.50;;;7.68;;
58643;SDS011;44411;49.994;8.660;2023-04-25T07:21:46;22.45;;;5.28;;
58643;SDS011;44411;49.994;8.660;2023-04-25T07:24:12;26.55;;;6.55;;
58643;SDS011;44411;49.994;8.660;2023-04-25T07:26:37;20.00;;;6.43;;
58643;SDS011;44411;49.994;8.660;2023-04-25T07:29:02;17.95;;;5.72;;
58643;SDS011;44411;49.994;8.660;2023-04-25T07:31:27;23.03;;;5.97;;
58643;SDS011;44411;49.994;8.660;2023-04-25T07:33:52;16.77;;;5.60;;
58643;SDS011;44411;49.994;8.660;2023-04-25T07:36:18;15.10;;;5.47;;
58643;SDS011;44411;49.994;8.660;2023-04-25T07:38:43;12.95;;;5.50;;
58643;SDS011;44411;49.994;8.660;2023-04-25T07:41:08;17.90;;;5.47;;
58643;SDS011;44411;49.994;8.660;2023-04-25T07:43:33;15.43;;;5.77;;
58643;SDS011;44411;49.994;8.660;2023-04-25T07:45:58;12.83;;;4.63;;
58643;SDS011;44411;49.994;8.660;2023-04-25T07:48:24;14.48;;;5.30;;
58643;SDS011;44411;49.994;8.660;2023-04-25T07:50:49;14.67;;;4.83;;
58643;SDS011;44411;49.994;8.660;2023-04-25T07:53:14;17.63;;;6.22;;
58643;SDS011;44411;49.994;8.660;2023-04-25T07:55:39;26.10;;;5.25;;
58643;SDS011;44411;49.994;8.660;2023-04-25T07:58:08;15.20;;;6.18;;
58643;SDS011;44411;49.994;8.660;2023-04-25T08:00:33;14.40;;;5.63;;
58643;SDS011;44411;49.994;8.660;2023-04-25T08:02:59;15.27;;;5.95;;
58643;SDS011;44411;49.994;8.660;2023-04-25T08:05:24;17.03;;;5.77;;
58643;SDS011;44411;49.994;8.660;2023-04-25T08:07:49;12.27;;;5.23;;
58643;SDS011;44411;49.994;8.660;2023-04-25T08:10:15;14.15;;;6.10;;
58643;SDS011;44411;49.994;8.660;2023-04-25T08:12:40;16.13;;;5.82;;
58643;SDS011;44411;49.994;8.660;2023-04-25T08:15:05;20.53;;;5.30;;
58643;SDS011;44411;49.994;8.660;2023-04-25T08:17:31;19.52;;;6.55;;
58643;SDS011;44411;49.994;8.660;2023-04-25T08:19:56;18.83;;;6.03;;
58643;SDS011;44411;49.994;8.660;2023-04-25T08:22:22;11.65;;;5.82;;
58643;SDS011;44411;49.994;8.660;2023-04-25T08:24:47;23.08;;;5.97;;
58643;SDS011;44411;49.994;8.660;2023-04-25T08:27:12;14.52;;;5.50;;
58643;SDS011;44411;49.994;8.660;2023-04-25T08:29:37;18.77;;;5.43;;
58643;SDS011;44411;49.994;8.660;2023-04-25T08:32:03;16.00;;;6.17;;
58643;SDS011;44411;49.994;8.660;2023-04-25T08:34:28;13.32;;;4.88;;
58643;SDS011;44411;49.994;8.660;2023-04-25T08:36:53;16.08;;;5.55;;
58643;SDS011;44411;49.994;8.660;2023-04-25T08:39:18;19.33;;;6.03;;
58643;SDS011;44411;49.994;8.660;2023-04-25T08:41:44;14.37;;;5.30;;
58643;SDS011;44411;49.994;8.660;2023-04-25T08:44:10;12.98;;;5.75;;
58643;SDS011;44411;49.994;8.660;2023-04-25T08:46:35;13.23;;;5.05;;
58643;SDS011;44411;49.994;8.660;2023-04-25T08:49:02;13.77;;;5.25;;
58643;SDS011;44411;49.994;8.660;2023-04-25T08:51:28;10.00;;;4.95;;
58643;SDS011;44411;49.994;8.660;2023-04-25T08:53:55;11.77;;;5.03;;
58643;SDS011;44411;49.994;8.660;2023-04-25T08:56:21;12.52;;;5.22;;
58643;SDS011;44411;49.994;8.660;2023-04-25T08:58:48;14.32;;;5.43;;
58643;SDS011;44411;49.994;8.660;2023-04-25T09:01:15;12.20;;;5.20;;
58643;SDS011;44411;49.994;8.660;2023-04-25T09:03:40;11.75;;;4.45;;
58643;SDS011;44411;49.994;8.660;2023-04-25T09:06:05;10.95;;;4.82;;
58643;SDS011;44411;49.994;8.660;2023-04-25T09:08:31;15.00;;;5.20;;
58643;SDS011;44411;49.994;8.660;2023-04-25T09:10:56;15.95;;;4.88;;
58643;SDS011;44411;49.994;8.660;2023-04-25T09:13:25;10.37;;;4.70;;
58643;SDS011;44411;49.994;8.660;2023-04-25T09:18:26;10.73;;;4.70;;
58643;SDS011;44411;49.994;8.660;2023-04-25T09:20:52;14.35;;;5.60;;
58643;SDS011;44411;49.994;8.660;2023-04-25T09:23:18;14.77;;;4.88;;
58643;SDS011;44411;49.994;8.660;2023-04-25T09:25:45;8.65;;;4.82;;
58643;SDS011;44411;49.994;8.660;2023-04-25T09:28:11;14.40;;;5.30;;
58643;SDS011;44411;49.994;8.660;2023-04-25T09:30:37;19.67;;;5.80;;
58643;SDS011;44411;49.994;8.660;2023-04-25T09:33:05;12.97;;;5.80;;
58643;SDS011;44411;49.994;8.660;2023-04-25T09:35:35;13.90;;;5.60;;
58643;SDS011;44411;49.994;8.660;2023-04-25T09:38:00;8.70;;;5.40;;
58643;SDS011;44411;49.994;8.660;2023-04-25T09:40:25;12.55;;;5.80;;
58643;SDS011;44411;49.994;8.660;2023-04-25T09:42:51;12.18;;;5.57;;
58643;SDS011;44411;49.994;8.660;2023-04-25T09:45:16;13.77;;;5.82;;
58643;SDS011;44411;49.994;8.660;2023-04-25T09:47:41;11.60;;;5.32;;
58643;SDS011;44411;49.994;8.660;2023-04-25T09:50:15;9.55;;;5.18;;
58643;SDS011;44411;49.994;8.660;2023-04-25T09:52:40;10.15;;;4.75;;
58643;SDS011;44411;49.994;8.660;2023-04-25T09:55:06;13.15;;;4.90;;
58643;SDS011;44411;49.994;8.660;2023-04-25T09:57:31;10.43;;;5.80;;
58643;SDS011;44411;49.994;8.660;2023-04-25T09:59:56;9.05;;;5.10;;
58643;SDS011;44411;49.994;8.660;2023-04-25T10:02:22;14.57;;;5.95;;
58643;SDS011;44411;49.994;8.660;2023-04-25T10:04:51;11.27;;;6.22;;
58643;SDS011;44411;49.994;8.660;2023-04-25T10:07:19;11.95;;;6.35;;
58643;SDS011;44411;49.994;8.660;2023-04-25T10:09:49;12.80;;;5.43;;
58643;SDS011;44411;49.994;8.660;2023-04-25T10:12:16;14.07;;;5.03;;
58643;SDS011;44411;49.994;8.660;2023-04-25T10:14:41;14.93;;;7.03;;
58643;SDS011;44411;49.994;8.660;2023-04-25T10:17:07;16.92;;;6.70;;
58643;SDS011;44411;49.994;8.660;2023-04-25T10:19:34;10.65;;;5.55;;
58643;SDS011;44411;49.994;8.660;2023-04-25T10:24:28;16.40;;;6.07;;
58643;SDS011;44411;49.994;8.660;2023-04-25T10:26:53;13.55;;;6.90;;
58643;SDS011;44411;49.994;8.660;2023-04-25T10:29:22;12.32;;;6.38;;
58643;SDS011;44411;49.994;8.660;2023-04-25T10:31:48;15.10;;;6.30;;
58643;SDS011;44411;49.994;8.660;2023-04-25T10:34:14;11.23;;;5.00;;
58643;SDS011;44411;49.994;8.660;2023-04-25T10:36:40;11.75;;;6.07;;
58643;SDS011;44411;49.994;8.660;2023-04-25T10:39:05;13.30;;;6.05;;
58643;SDS011;44411;49.994;8.660;2023-04-25T10:41:32;14.00;;;5.72;;
58643;SDS011;44411;49.994;8.660;2023-04-25T10:44:10;13.95;;;6.80;;
58643;SDS011;44411;49.994;8.660;2023-04-25T10:46:35;12.35;;;5.70;;
58643;SDS011;44411;49.994;8.660;2023-04-25T10:49:01;11.88;;;5.43;;
58643;SDS011;44411;49.994;8.660;2023-04-25T10:51:27;14.05;;;6.95;;
58643;SDS011;44411;49.994;8.660;2023-04-25T10:58:55;11.85;;;6.22;;
58643;SDS011;44411;49.994;8.660;2023-04-25T11:01:27;11.45;;;5.90;;
58643;SDS011;44411;49.994;8.660;2023-04-25T11:04:00;11.68;;;6.47;;
58643;SDS011;44411;49.994;8.660;2023-04-25T11:06:50;14.20;;;6.60;;
58643;SDS011;44411;49.994;8.660;2023-04-25T11:09:10;17.30;;;6.30;;
58643;SDS011;44411;49.994;8.660;2023-04-25T11:11:38;11.35;;;5.43;;
58643;SDS011;44411;49.994;8.660;2023-04-25T11:14:03;16.00;;;6.57;;
58643;SDS011;44411;49.994;8.660;2023-04-25T11:16:28;13.73;;;6.57;;
58643;SDS011;44411;49.994;8.660;2023-04-25T11:18:56;13.77;;;6.53;;
58643;SDS011;44411;49.994;8.660;2023-04-25T11:21:22;11.52;;;5.93;;
58643;SDS011;44411;49.994;8.660;2023-04-25T11:23:47;12.90;;;5.55;;
58643;SDS011;44411;49.994;8.660;2023-04-25T11:26:13;14.23;;;6.40;;
58643;SDS011;44411;49.994;8.660;2023-04-25T11:28:38;13.40;;;6.30;;
58643;SDS011;44411;49.994;8.660;2023-04-25T11:31:04;12.17;;;6.03;;
58643;SDS011;44411;49.994;8.660;2023-04-25T11:33:29;13.63;;;6.53;;
58643;SDS011;44411;49.994;8.660;2023-04-25T11:35:54;12.40;;;7.03;;
58643;SDS011;44411;49.994;8.660;2023-04-25T11:38:23;16.05;;;6.45;;
58643;SDS011;44411;49.994;8.660;2023-04-25T11:40:52;12.05;;;5.82;;
58643;SDS011;44411;49.994;8.660;2023-04-25T11:43:18;14.57;;;5.97;;
58643;SDS011;44411;49.994;8.660;2023-04-25T11:45:51;11.95;;;6.50;;
58643;SDS011;44411;49.994;8.660;2023-04-25T11:48:17;11.90;;;6.18;;
58643;SDS011;44411;49.994;8.660;2023-04-25T11:50:42;11.75;;;5.40;;
58643;SDS011;44411;49.994;8.660;2023-04-25T11:53:07;9.40;;;5.60;;
58643;SDS011;44411;49.994;8.660;2023-04-25T11:55:33;9.70;;;4.93;;
58643;SDS011;44411;49.994;8.660;2023-04-25T11:57:59;12.10;;;5.78;;
58643;SDS011;44411;49.994;8.660;2023-04-25T12:00:25;10.48;;;6.28;;
58643;SDS011;44411;49.994;8.660;2023-04-25T12:02:54;8.60;;;5.32;;
58643;SDS011;44411;49.994;8.660;2023-04-25T12:05:20;13.70;;;5.28;;
58643;SDS011;44411;49.994;8.660;2023-04-25T12:07:45;11.18;;;5.18;;
58643;SDS011;44411;49.994;8.660;2023-04-25T12:10:12;10.50;;;5.10;;
58643;SDS011;44411;49.994;8.660;2023-04-25T12:12:39;7.90;;;5.07;;
58643;SDS011;44411;49.994;8.660;2023-04-25T12:17:35;10.82;;;5.72;;
58643;SDS011;44411;49.994;8.660;2023-04-25T12:20:00;8.45;;;4.88;;
58643;SDS011;44411;49.994;8.660;2023-04-25T12:24:56;11.40;;;5.45;;
58643;SDS011;44411;49.994;8.660;2023-04-25T12:27:23;10.57;;;5.25;;
58643;SDS011;44411;49.994;8.660;2023-04-25T12:29:51;9.27;;;5.55;;
58643;SDS011;44411;49.994;8.660;2023-04-25T12:32:17;7.80;;;5.30;;
58643;SDS011;44411;49.994;8.660;2023-04-25T12:34:42;8.20;;;4.93;;
58643;SDS011;44411;49.994;8.660;2023-04-25T12:37:08;8.68;;;4.70;;
58643;SDS011;44411;49.994;8.660;2023-04-25T12:39:33;7.78;;;4.45;;
58643;SDS011;44411;49.994;8.660;2023-04-25T12:41:58;10.53;;;5.23;;
58643;SDS011;44411;49.994;8.660;2023-04-25T12:44:24;9.10;;;4.72;;
58643;SDS011;44411;49.994;8.660;2023-04-25T12:46:49;9.43;;;4.70;;
58643;SDS011;44411;49.994;8.660;2023-04-25T12:49:15;6.78;;;4.15;;
58643;SDS011;44411;49.994;8.660;2023-04-25T12:51:41;9.52;;;4.90;;
58643;SDS011;44411;49.994;8.660;2023-04-25T12:54:06;10.35;;;5.47;;
58643;SDS011;44411;49.994;8.660;2023-04-25T12:56:33;9.65;;;4.95;;
58643;SDS011;44411;49.994;8.660;2023-04-25T12:58:58;9.70;;;4.47;;
58643;SDS011;44411;49.994;8.660;2023-04-25T13:01:24;8.55;;;3.72;;
58643;SDS011;44411;49.994;8.660;2023-04-25T13:03:49;11.55;;;4.80;;
58643;SDS011;44411;49.994;8.660;2023-04-25T13:06:15;11.02;;;4.63;;
58643;SDS011;44411;49.994;8.660;2023-04-25T13:08:40;7.32;;;4.25;;
58643;SDS011;44411;49.994;8.660;2023-04-25T13:11:06;5.18;;;3.10;;
58643;SDS011;44411;49.994;8.660;2023-04-25T13:13:32;5.53;;;3.90;;
58643;SDS011;44411;49.994;8.660;2023-04-25T13:15:59;8.13;;;3.75;;
58643;SDS011;44411;49.994;8.660;2023-04-25T13:18:24;8.30;;;4.33;;
58643;SDS011;44411;49.994;8.660;2023-04-25T13:20:52;9.10;;;3.63;;
58643;SDS011;44411;49.994;8.660;2023-04-25T13:23:18;9.93;;;3.78;;
58643;SDS011;44411;49.994;8.660;2023-04-25T13:25:43;8.93;;;4.60;;
58643;SDS011;44411;49.994;8.660;2023-04-25T13:28:08;7.03;;;4.27;;
58643;SDS011;44411;49.994;8.660;2023-04-25T13:30:33;7.63;;;4.65;;
58643;SDS011;44411;49.994;8.660;2023-04-25T13:32:59;9.40;;;4.90;;
58643;SDS011;44411;49.994;8.660;2023-04-25T13:35:28;6.43;;;4.22;;
58643;SDS011;44411;49.994;8.660;2023-04-25T13:37:53;8.63;;;4.53;;
58643;SDS011;44411;49.994;8.660;2023-04-25T13:40:18;5.63;;;4.23;;
58643;SDS011;44411;49.994;8.660;2023-04-25T13:42:43;6.22;;;3.83;;
58643;SDS011;44411;49.994;8.660;2023-04-25T13:45:10;6.55;;;3.97;;
58643;SDS011;44411;49.994;8.660;2023-04-25T13:47:35;6.38;;;4.00;;
58643;SDS011;44411;49.994;8.660;2023-04-25T13:50:00;8.25;;;4.63;;
58643;SDS011;44411;49.994;8.660;2023-04-25T13:52:28;7.45;;;3.83;;
58643;SDS011;44411;49.994;8.660;2023-04-25T13:54:53;8.57;;;4.88;;
58643;SDS011;44411;49.994;8.660;2023-04-25T13:57:18;8.93;;;3.80;;
58643;SDS011;44411;49.994;8.660;2023-04-25T13:59:44;9.23;;;4.57;;
58643;SDS011;44411;49.994;8.660;2023-04-25T14:02:09;9.60;;;4.30;;
58643;SDS011;44411;49.994;8.660;2023-04-25T14:04:34;8.97;;;4.37;;
58643;SDS011;44411;49.994;8.660;2023-04-25T14:06:59;7.45;;;3.50;;
58643;SDS011;44411;49.994;8.660;2023-04-25T14:09:25;7.68;;;3.72;;
58643;SDS011;44411;49.994;8.660;2023-04-25T14:11:52;7.13;;;4.15;;
58643;SDS011;44411;49.994;8.660;2023-04-25T14:14:18;5.88;;;3.70;;
58643;SDS011;44411;49.994;8.660;2023-04-25T14:16:43;6.47;;;3.47;;
58643;SDS011;44411;49.994;8.660;2023-04-25T14:19:08;6.73;;;4.10;;
58643;SDS011;44411;49.994;8.660;2023-04-25T14:21:33;8.87;;;3.10;;
58643;SDS011;44411;49.994;8.660;2023-04-25T14:23:58;7.00;;;3.57;;
58643;SDS011;44411;49.994;8.660;2023-04-25T14:26:24;5.90;;;3.47;;
58643;SDS011;44411;49.994;8.660;2023-04-25T14:28:50;7.72;;;3.55;;
58643;SDS011;44411;49.994;8.660;2023-04-25T14:31:16;7.00;;;3.90;;
58643;SDS011;44411;49.994;8.660;2023-04-25T14:33:41;8.63;;;3.30;;
58643;SDS011;44411;49.994;8.660;2023-04-25T14:36:08;5.72;;;3.15;;
58643;SDS011;44411;49.994;8.660;2023-04-25T14:38:33;6.63;;;3.87;;
58643;SDS011;44411;49.994;8.660;2023-04-25T14:40:58;8.77;;;3.07;;
58643;SDS011;44411;49.994;8.660;2023-04-25T14:43:23;5.10;;;2.78;;
58643;SDS011;44411;49.994;8.660;2023-04-25T14:45:48;6.57;;;3.00;;
58643;SDS011;44411;49.994;8.660;2023-04-25T14:48:14;4.95;;;2.92;;
58643;SDS011;44411;49.994;8.660;2023-04-25T14:50:40;6.45;;;3.28;;
58643;SDS011;44411;49.994;8.660;2023-04-25T14:53:05;6.65;;;3.22;;
58643;SDS011;44411;49.994;8.660;2023-04-25T14:55:30;5.20;;;3.15;;
58643;SDS011;44411;49.994;8.660;2023-04-25T14:57:56;5.53;;;2.80;;
58643;SDS011;44411;49.994;8.660;2023-04-25T15:00:21;8.52;;;3.17;;
58643;SDS011;44411;49.994;8.660;2023-04-25T15:02:50;9.40;;;2.92;;
58643;SDS011;44411;49.994;8.660;2023-04-25T15:05:15;5.13;;;2.88;;
58643;SDS011;44411;49.994;8.660;2023-04-25T15:07:40;4.72;;;2.75;;
58643;SDS011;44411;49.994;8.660;2023-04-25T15:10:09;5.53;;;2.63;;
58643;SDS011;44411;49.994;8.660;2023-04-25T15:12:42;6.45;;;3.05;;
58643;SDS011;44411;49.994;8.660;2023-04-25T15:15:07;5.97;;;2.50;;
58643;SDS011;44411;49.994;8.660;2023-04-25T15:17:36;7.60;;;3.22;;
58643;SDS011;44411;49.994;8.660;2023-04-25T15:20:02;5.68;;;2.83;;
58643;SDS011;44411;49.994;8.660;2023-04-25T15:22:27;5.93;;;2.83;;
58643;SDS011;44411;49.994;8.660;2023-04-25T15:24:52;6.93;;;2.78;;
58643;SDS011;44411;49.994;8.660;2023-04-25T15:27:18;9.48;;;3.42;;
58643;SDS011;44411;49.994;8.660;2023-04-25T15:29:43;3.80;;;2.77;;
58643;SDS011;44411;49.994;8.660;2023-04-25T15:32:08;4.25;;;2.38;;
58643;SDS011;44411;49.994;8.660;2023-04-25T15:34:34;6.50;;;2.78;;
58643;SDS011;44411;49.994;8.660;2023-04-25T15:36:59;4.45;;;2.40;;
58643;SDS011;44411;49.994;8.660;2023-04-25T15:39:24;7.70;;;2.23;;
58643;SDS011;44411;49.994;8.660;2023-04-25T15:41:50;4.63;;;2.28;;
58643;SDS011;44411;49.994;8.660;2023-04-25T15:44:15;5.45;;;2.05;;
58643;SDS011;44411;49.994;8.660;2023-04-25T15:46:40;6.18;;;2.40;;
58643;SDS011;44411;49.994;8.660;2023-04-25T15:49:05;3.87;;;1.97;;
58643;SDS011;44411;49.994;8.660;2023-04-25T15:51:30;4.60;;;2.50;;
58643;SDS011;44411;49.994;8.660;2023-04-25T15:53:57;7.40;;;2.70;;
58643;SDS011;44411;49.994;8.660;2023-04-25T15:56:22;5.53;;;2.33;;
58643;SDS011;44411;49.994;8.660;2023-04-25T15:58:48;6.53;;;2.60;;
58643;SDS011;44411;49.994;8.660;2023-04-25T16:01:13;5.30;;;2.50;;
58643;SDS011;44411;49.994;8.660;2023-04-25T16:03:38;4.05;;;1.85;;
58643;SDS011;44411;49.994;8.660;2023-04-25T16:06:04;5.45;;;2.00;;
58643;SDS011;44411;49.994;8.660;2023-04-25T16:08:29;5.22;;;2.35;;
58643;SDS011;44411;49.994;8.660;2023-04-25T16:10:58;3.88;;;1.73;;
58643;SDS011;44411;49.994;8.660;2023-04-25T16:13:23;4.60;;;1.77;;
58643;SDS011;44411;49.994;8.660;2023-04-25T16:15:50;5.80;;;2.03;;
58643;SDS011;44411;49.994;8.660;2023-04-25T16:18:15;3.40;;;1.80;;
58643;SDS011;44411;49.994;8.660;2023-04-25T16:20:41;4.88;;;2.17;;
58643;SDS011;44411;49.994;8.660;2023-04-25T16:23:06;2.92;;;1.60;;
58643;SDS011;44411;49.994;8.660;2023-04-25T16:25:31;6.37;;;1.90;;
58643;SDS011;44411;49.994;8.660;2023-04-25T16:27:56;3.83;;;1.70;;
58643;SDS011;44411;49.994;8.660;2023-04-25T16:30:22;4.83;;;1.90;;
58643;SDS011;44411;49.994;8.660;2023-04-25T16:32:47;3.60;;;1.90;;
58643;SDS011;44411;49.994;8.660;2023-04-25T16:35:12;5.47;;;2.05;;
58643;SDS011;44411;49.994;8.660;2023-04-25T16:37:37;3.58;;;1.73;;
58643;SDS011;44411;49.994;8.660;2023-04-25T16:40:03;4.22;;;2.47;;
58643;SDS011;44411;49.994;8.660;2023-04-25T16:42:28;5.40;;;1.67;;
58643;SDS011;44411;49.994;8.660;2023-04-25T16:44:53;4.93;;;1.95;;
58643;SDS011;44411;49.994;8.660;2023-04-25T16:47:18;3.50;;;1.73;;
58643;SDS011;44411;49.994;8.660;2023-04-25T16:49:44;3.55;;;1.85;;
58643;SDS011;44411;49.994;8.660;2023-04-25T16:52:09;6.07;;;2.27;;
58643;SDS011;44411;49.994;8.660;2023-04-25T16:54:35;3.05;;;1.80;;
58643;SDS011;44411;49.994;8.660;2023-04-25T16:57:01;5.55;;;2.20;;
58643;SDS011;44411;49.994;8.660;2023-04-25T16:59:26;3.85;;;1.70;;
58643;SDS011;44411;49.994;8.660;2023-04-25T17:01:52;6.35;;;2.40;;
58643;SDS011;44411;49.994;8.660;2023-04-25T17:04:17;5.10;;;2.40;;
58643;SDS011;44411;49.994;8.660;2023-04-25T17:06:42;4.43;;;1.87;;
58643;SDS011;44411;49.994;8.660;2023-04-25T17:09:08;4.57;;;2.15;;
58643;SDS011;44411;49.994;8.660;2023-04-25T17:11:34;4.53;;;1.77;;
58643;SDS011;44411;49.994;8.660;2023-04-25T17:14:03;3.22;;;1.63;;
58643;SDS011;44411;49.994;8.660;2023-04-25T17:16:34;4.53;;;2.13;;
58643;SDS011;44411;49.994;8.660;2023-04-25T17:19:00;4.50;;;1.63;;
58643;SDS011;44411;49.994;8.660;2023-04-25T17:21:25;4.07;;;1.73;;
58643;SDS011;44411;49.994;8.660;2023-04-25T17:23:51;5.00;;;1.83;;
58643;SDS011;44411;49.994;8.660;2023-04-25T17:26:16;4.95;;;1.92;;
58643;SDS011;44411;49.994;8.660;2023-04-25T17:28:42;5.93;;;1.83;;
58643;SDS011;44411;49.994;8.660;2023-04-25T17:31:12;4.68;;;2.28;;
58643;SDS011;44411;49.994;8.660;2023-04-25T17:33:41;5.72;;;1.83;;
58643;SDS011;44411;49.994;8.660;2023-04-25T17:36:06;5.13;;;1.93;;
58643;SDS011;44411;49.994;8.660;2023-04-25T17:38:32;5.78;;;2.50;;
58643;SDS011;44411;49.994;8.660;2023-04-25T17:41:00;6.22;;;1.80;;
58643;SDS011;44411;49.994;8.660;2023-04-25T17:43:25;4.05;;;1.67;;
58643;SDS011;44411;49.994;8.660;2023-04-25T17:45:51;6.22;;;1.77;;
58643;SDS011;44411;49.994;8.660;2023-04-25T17:48:18;4.35;;;1.67;;
58643;SDS011;44411;49.994;8.660;2023-04-25T17:50:46;6.00;;;2.35;;
58643;SDS011;44411;49.994;8.660;2023-04-25T17:53:11;5.78;;;2.05;;
58643;SDS011;44411;49.994;8.660;2023-04-25T17:55:36;5.63;;;1.70;;
58643;SDS011;44411;49.994;8.660;2023-04-25T17:58:02;4.32;;;1.73;;
58643;SDS011;44411;49.994;8.660;2023-04-25T18:00:27;3.83;;;1.90;;
58643;SDS011;44411;49.994;8.660;2023-04-25T18:02:54;3.38;;;1.88;;
58643;SDS011;44411;49.994;8.660;2023-04-25T18:05:19;6.53;;;1.90;;
58643;SDS011;44411;49.994;8.660;2023-04-25T18:07:44;3.90;;;1.48;;
58643;SDS011;44411;49.994;8.660;2023-04-25T18:10:10;3.72;;;1.33;;
58643;SDS011;44411;49.994;8.660;2023-04-25T18:12:36;4.47;;;1.73;;
58643;SDS011;44411;49.994;8.660;2023-04-25T18:15:02;6.18;;;2.05;;
58643;SDS011;44411;49.994;8.660;2023-04-25T18:17:30;5.00;;;1.55;;
58643;SDS011;44411;49.994;8.660;2023-04-25T18:19:56;3.20;;;1.42;;
58643;SDS011;44411;49.994;8.660;2023-04-25T18:22:21;4.10;;;1.55;;
58643;SDS011;44411;49.994;8.660;2023-04-25T18:24:46;3.83;;;1.58;;
58643;SDS011;44411;49.994;8.660;2023-04-25T18:27:11;3.63;;;1.63;;
58643;SDS011;44411;49.994;8.660;2023-04-25T18:29:37;3.58;;;1.60;;
58643;SDS011;44411;49.994;8.660;2023-04-25T18:32:02;3.65;;;1.52;;
58643;SDS011;44411;49.994;8.660;2023-04-25T18:34:28;2.10;;;1.40;;
58643;SDS011;44411;49.994;8.660;2023-04-25T18:36:54;5.80;;;1.20;;
58643;SDS011;44411;49.994;8.660;2023-04-25T18:39:20;2.17;;;1.20;;
58643;SDS011;44411;49.994;8.660;2023-04-25T18:41:45;3.20;;;1.50;;
58643;SDS011;44411;49.994;8.660;2023-04-25T18:44:11;2.92;;;1.45;;
58643;SDS011;44411;49.994;8.660;2023-04-25T18:46:36;3.70;;;1.58;;